createdAt,value
2023-04-13T00:00:20.669Z,64.85
2023-04-13T00:01:23.566Z,31.88
2023-04-13T00:02:26.537Z,30.98
2023-04-13T00:03:29.650Z,26.25
2023-04-13T00:04:32.578Z,26.23
2023-04-13T00:05:35.724Z,15.68
2023-04-13T00:06:38.430Z,12.43
2023-04-13T00:07:41.197Z,13.80
2023-04-13T00:08:43.970Z,10.64
2023-04-13T00:09:47.079Z,13.18
2023-04-13T00:10:49.917Z,17.33
2023-04-13T00:11:52.704Z,15.47
2023-04-13T00:12:55.464Z,27.32
2023-04-13T00:13:58.405Z,20.91
2023-04-13T00:15:01.420Z,23.77
2023-04-13T00:16:04.093Z,28.67
2023-04-13T00:17:07.113Z,57.76
2023-04-13T00:18:10.248Z,19.35
2023-04-13T00:19:12.932Z,15.28
2023-04-13T00:20:16.072Z,16.78
2023-04-13T00:21:19.129Z,23.55
2023-04-13T00:22:21.951Z,19.92
2023-04-13T00:23:24.755Z,17.97
2023-04-13T00:24:27.050Z,16.32
2023-04-13T00:25:30.058Z,12.14
2023-04-13T00:26:32.939Z,12.68
2023-04-13T00:27:35.815Z,10.92
2023-04-13T00:28:38.589Z,9.69
2023-04-13T00:29:41.674Z,12.80
2023-04-13T00:30:44.800Z,9.78
2023-04-13T00:31:47.718Z,9.87
2023-04-13T00:32:50.653Z,7.98
2023-04-13T00:33:53.138Z,9.38
2023-04-13T00:34:55.860Z,11.02
2023-04-13T00:35:58.717Z,11.01
2023-04-13T00:37:01.723Z,10.83
2023-04-13T00:38:04.727Z,9.14
2023-04-13T00:39:07.753Z,9.82
2023-04-13T00:40:10.626Z,12.52
2023-04-13T00:41:13.653Z,13.87
2023-04-13T00:42:16.774Z,12.96
2023-04-13T00:43:19.550Z,18.14
2023-04-13T00:45:35.235Z,13.99
2023-04-13T00:46:38.559Z,11.39
2023-04-13T00:47:41.326Z,8.25
2023-04-13T00:48:44.380Z,7.23
2023-04-13T00:49:47.030Z,5.83
2023-04-13T00:50:49.710Z,6.46
2023-04-13T00:51:52.480Z,9.43
2023-04-13T00:52:55.363Z,7.68
2023-04-13T00:53:58.485Z,6.95
2023-04-13T00:55:01.620Z,5.97
2023-04-13T00:56:04.484Z,5.76
2023-04-13T00:57:07.361Z,7.79
2023-04-13T00:58:10.339Z,6.90
2023-04-13T00:59:13.521Z,8.35
2023-04-13T01:00:16.292Z,15.26
2023-04-13T01:01:19.578Z,37.01
2023-04-13T01:02:22.410Z,22.94
2023-04-13T01:04:41.446Z,26.31
2023-04-13T01:07:00.396Z,14.25
2023-04-13T01:08:03.365Z,27.60
2023-04-13T01:10:22.294Z,53.79
2023-04-13T01:11:25.077Z,9.72
2023-04-13T01:13:43.847Z,8.62
2023-04-13T01:14:47.833Z,6.03
2023-04-13T01:15:50.743Z,6.80
2023-04-13T01:16:53.482Z,5.45
2023-04-13T01:19:17.931Z,5.75
2023-04-13T01:20:21.988Z,6.16
2023-04-13T01:21:25.045Z,8.44
2023-04-13T01:23:36.222Z,6.34
2023-04-13T01:25:54.977Z,5.32
2023-04-13T01:26:57.970Z,5.12
2023-04-13T01:28:04.118Z,5.20
2023-04-13T01:29:06.883Z,7.01
2023-04-13T01:30:09.656Z,10.38
2023-04-13T01:31:12.442Z,5.38
2023-04-13T01:32:15.196Z,6.12
2023-04-13T01:33:18.085Z,6.38
2023-04-13T01:34:20.846Z,6.64
2023-04-13T01:36:31.504Z,5.69
2023-04-13T01:37:34.281Z,4.56
2023-04-13T01:38:37.472Z,6.58
2023-04-13T01:39:40.448Z,6.01
2023-04-13T01:41:59.601Z,5.09
2023-04-13T01:43:02.374Z,5.03
2023-04-13T01:44:05.660Z,6.92
2023-04-13T01:45:08.636Z,4.90
2023-04-13T01:46:11.586Z,6.32
2023-04-13T01:48:30.901Z,5.46
2023-04-13T01:49:33.553Z,6.32
2023-04-13T01:50:36.123Z,7.10
2023-04-13T01:51:38.985Z,8.90
2023-04-13T01:52:41.879Z,8.53
2023-04-13T01:53:44.846Z,5.50
2023-04-13T01:54:47.718Z,9.21
2023-04-13T01:57:01.348Z,6.59
2023-04-13T01:58:04.223Z,7.16
2023-04-13T01:59:07.010Z,7.72
2023-04-13T02:01:17.690Z,6.05
2023-04-13T02:03:36.691Z,7.45
2023-04-13T02:04:39.499Z,5.58
2023-04-13T02:05:42.089Z,7.75
2023-04-13T02:06:45.043Z,6.10
2023-04-13T02:07:47.917Z,5.90
2023-04-13T02:08:52.468Z,7.55
2023-04-13T02:09:54.996Z,5.97
2023-04-13T02:10:57.785Z,5.63
2023-04-13T02:13:08.538Z,5.06
2023-04-13T02:15:19.203Z,5.79
2023-04-13T02:17:29.908Z,5.39
2023-04-13T02:20:51.697Z,5.76
2023-04-13T02:24:15.681Z,6.31
2023-04-13T02:25:18.562Z,5.72
2023-04-13T02:27:39.225Z,7.36
2023-04-13T02:28:42.132Z,6.25
2023-04-13T02:29:57.295Z,6.22
2023-04-13T02:34:35.008Z,5.84
2023-04-13T02:35:37.785Z,6.46
2023-04-13T02:36:40.454Z,4.98
2023-04-13T02:37:43.327Z,7.41
2023-04-13T02:38:46.217Z,7.44
2023-04-13T02:39:48.873Z,6.25
2023-04-13T02:40:51.747Z,7.12
2023-04-13T02:41:54.415Z,5.75
2023-04-13T02:42:57.201Z,5.50
2023-04-13T02:44:00.197Z,8.49
2023-04-13T02:45:02.940Z,8.53
2023-04-13T02:46:05.613Z,8.75
2023-04-13T02:47:08.376Z,7.53
2023-04-13T02:48:11.152Z,9.86
2023-04-13T02:49:13.921Z,9.76
2023-04-13T02:50:16.604Z,8.98
2023-04-13T02:51:19.366Z,9.68
2023-04-13T02:52:22.143Z,8.81
2023-04-13T02:53:24.911Z,8.38
2023-04-13T02:54:43.140Z,6.94
2023-04-13T02:55:46.018Z,6.50
2023-04-13T02:56:48.793Z,7.68
2023-04-13T02:57:51.571Z,6.85
2023-04-13T02:58:54.330Z,5.51
2023-04-13T03:01:05.128Z,7.38
2023-04-13T03:03:24.466Z,4.65
2023-04-13T03:04:27.367Z,4.95
2023-04-13T03:05:30.316Z,5.22
2023-04-13T03:06:33.295Z,5.25
2023-04-13T03:07:36.268Z,8.68
2023-04-13T03:08:39.557Z,7.25
2023-04-13T03:10:58.321Z,8.18
2023-04-13T03:12:01.200Z,5.62
2023-04-13T03:13:03.967Z,6.33
2023-04-13T03:14:07.006Z,8.13
2023-04-13T03:15:10.012Z,9.05
2023-04-13T03:17:28.894Z,5.48
2023-04-13T03:18:31.640Z,5.34
2023-04-13T03:19:34.417Z,8.02
2023-04-13T03:20:37.196Z,4.93
2023-04-13T03:21:40.168Z,5.69
2023-04-13T03:22:42.941Z,6.34
2023-04-13T03:23:45.816Z,6.28
2023-04-13T03:24:48.496Z,7.52
2023-04-13T03:27:07.459Z,5.59
2023-04-13T03:28:10.627Z,6.21
2023-04-13T03:29:13.295Z,6.28
2023-04-13T03:30:17.196Z,7.23
2023-04-13T03:31:19.907Z,7.48
2023-04-13T03:32:22.495Z,9.86
2023-04-13T03:34:27.993Z,6.84
2023-04-13T03:44:55.295Z,9.15
2023-04-13T03:45:57.909Z,8.48
2023-04-13T03:47:00.543Z,7.22
2023-04-13T03:48:03.318Z,5.95
2023-04-13T03:49:06.073Z,6.96
2023-04-13T03:50:09.067Z,9.27
2023-04-13T03:51:11.828Z,8.73
2023-04-13T03:52:14.600Z,5.91
2023-04-13T03:53:17.567Z,6.25
2023-04-13T03:54:20.238Z,8.00
2023-04-13T03:55:23.072Z,6.50
2023-04-13T03:56:25.798Z,6.21
2023-04-13T03:57:28.455Z,7.90
2023-04-13T03:58:31.124Z,7.15
2023-04-13T03:59:33.899Z,5.82
2023-04-13T04:00:36.778Z,6.72
2023-04-13T04:01:39.438Z,8.22
2023-04-13T04:02:42.397Z,8.48
2023-04-13T04:03:45.510Z,6.05
2023-04-13T04:04:47.858Z,6.53
2023-04-13T04:05:50.462Z,9.54
2023-04-13T04:06:53.104Z,6.90
2023-04-13T04:07:55.780Z,9.03
2023-04-13T04:08:58.435Z,7.44
2023-04-13T04:10:01.104Z,8.52
2023-04-13T04:11:03.885Z,8.67
2023-04-13T04:12:06.353Z,10.09
2023-04-13T04:13:09.121Z,7.98
2023-04-13T04:14:11.884Z,7.12
2023-04-13T04:15:14.664Z,8.17
2023-04-13T04:16:17.991Z,7.42
2023-04-13T04:17:21.031Z,8.46
2023-04-13T04:18:23.793Z,7.22
2023-04-13T04:19:26.773Z,7.00
2023-04-13T04:20:29.539Z,8.50
2023-04-13T04:21:32.416Z,7.65
2023-04-13T04:22:35.396Z,7.00
2023-04-13T04:23:38.062Z,8.24
2023-04-13T04:24:40.734Z,12.22
2023-04-13T04:25:43.607Z,8.94
2023-04-13T04:26:46.378Z,8.32
2023-04-13T04:27:49.357Z,5.70
2023-04-13T04:28:52.138Z,7.98
2023-04-13T04:29:54.796Z,4.71
2023-04-13T04:30:57.776Z,6.30
2023-04-13T04:32:00.661Z,6.70
2023-04-13T04:33:03.713Z,7.92
2023-04-13T04:34:06.810Z,6.87
2023-04-13T04:35:09.817Z,6.89
2023-04-13T04:36:12.769Z,5.35
2023-04-13T04:37:20.606Z,4.42
2023-04-13T04:38:19.842Z,6.43
2023-04-13T04:39:22.890Z,6.23
2023-04-13T04:40:28.741Z,4.75
2023-04-13T04:41:31.511Z,7.35
2023-04-13T04:42:34.518Z,8.49
2023-04-13T04:43:37.288Z,8.82
2023-04-13T04:44:39.848Z,7.49
2023-04-13T04:45:42.641Z,5.88
2023-04-13T04:46:45.611Z,7.48
2023-04-13T04:47:48.408Z,7.59
2023-04-13T04:48:51.162Z,10.03
2023-04-13T04:49:53.817Z,8.48
2023-04-13T04:50:56.593Z,6.45
2023-04-13T04:51:59.366Z,8.90
2023-04-13T04:53:02.144Z,7.17
2023-04-13T04:54:04.908Z,8.98
2023-04-13T04:55:07.590Z,7.40
2023-04-13T04:56:10.249Z,7.22
2023-04-13T04:57:12.919Z,6.83
2023-04-13T04:58:15.992Z,7.28
2023-04-13T04:59:18.673Z,7.45
2023-04-13T05:00:21.336Z,6.62
2023-04-13T05:01:24.453Z,6.93
2023-04-13T05:02:27.505Z,8.31
2023-04-13T05:03:30.507Z,6.45
2023-04-13T05:04:33.763Z,7.35
2023-04-13T05:05:36.773Z,5.82
2023-04-13T05:06:40.225Z,7.14
2023-04-13T05:07:42.908Z,5.33
2023-04-13T05:08:45.774Z,6.52
2023-04-13T05:09:49.174Z,7.45
2023-04-13T05:10:52.401Z,6.59
2023-04-13T05:11:54.909Z,5.92
2023-04-13T05:12:57.603Z,7.31
2023-04-13T05:14:00.250Z,4.29
2023-04-13T05:15:03.122Z,5.37
2023-04-13T05:16:05.781Z,6.29
2023-04-13T05:17:17.062Z,7.33
2023-04-13T05:18:20.068Z,6.47
2023-04-13T05:19:22.816Z,4.83
2023-04-13T05:20:25.911Z,6.88
2023-04-13T05:21:28.770Z,5.65
2023-04-13T05:22:31.439Z,5.93
2023-04-13T05:23:34.207Z,6.00
2023-04-13T05:24:36.990Z,6.71
2023-04-13T05:25:39.798Z,8.35
2023-04-13T05:26:42.529Z,8.83
2023-04-13T05:27:45.308Z,9.05
2023-04-13T05:28:47.986Z,7.63
2023-04-13T05:29:50.743Z,7.86
2023-04-13T05:30:53.508Z,8.02
2023-04-13T05:31:56.200Z,6.05
2023-04-13T05:32:58.832Z,8.83
2023-04-13T05:34:01.537Z,8.97
2023-04-13T05:35:04.200Z,6.76
2023-04-13T05:36:06.862Z,6.62
2023-04-13T05:37:09.541Z,8.28
2023-04-13T05:38:12.318Z,9.36
2023-04-13T05:39:14.974Z,9.27
2023-04-13T05:40:17.753Z,7.37
2023-04-13T05:41:20.416Z,7.85
2023-04-13T05:42:22.981Z,7.10
2023-04-13T05:43:25.650Z,5.50
2023-04-13T05:44:28.322Z,6.54
2023-04-13T05:45:31.426Z,7.99
2023-04-13T05:46:34.279Z,9.13
2023-04-13T05:47:37.283Z,6.85
2023-04-13T05:48:40.039Z,10.52
2023-04-13T05:49:42.798Z,7.62
2023-04-13T05:50:46.003Z,7.34
2023-04-13T05:51:48.752Z,8.97
2023-04-13T05:52:51.838Z,9.51
2023-04-13T05:53:55.021Z,9.39
2023-04-13T05:54:57.989Z,8.82
2023-04-13T05:56:01.171Z,9.16
2023-04-13T05:57:04.153Z,8.37
2023-04-13T05:58:07.020Z,9.33
2023-04-13T05:59:10.334Z,9.60
2023-04-13T06:00:12.977Z,10.91
2023-04-13T06:01:16.061Z,10.58
2023-04-13T06:02:18.948Z,11.30
2023-04-13T06:03:22.231Z,11.64
2023-04-13T06:04:25.575Z,10.88
2023-04-13T06:05:28.681Z,10.27
2023-04-13T06:06:31.794Z,9.32
2023-04-13T06:07:34.736Z,11.40
2023-04-13T06:08:37.829Z,8.79
2023-04-13T06:09:40.897Z,10.43
2023-04-13T06:10:43.772Z,9.85
2023-04-13T06:11:46.565Z,7.98
2023-04-13T06:12:49.324Z,9.41
2023-04-13T06:13:52.083Z,9.39
2023-04-13T06:14:54.961Z,10.66
2023-04-13T06:15:57.631Z,12.93
2023-04-13T06:17:00.338Z,7.37
2023-04-13T06:18:03.366Z,9.57
2023-04-13T06:19:06.049Z,9.79
2023-04-13T06:20:09.332Z,6.66
2023-04-13T06:21:12.417Z,6.76
2023-04-13T06:22:15.297Z,7.35
2023-04-13T06:23:18.375Z,7.68
2023-04-13T06:24:21.147Z,5.31
2023-04-13T06:25:24.016Z,5.43
2023-04-13T06:26:26.998Z,7.99
2023-04-13T06:27:29.659Z,6.32
2023-04-13T06:28:32.556Z,8.55
2023-04-13T06:29:35.216Z,6.25
2023-04-13T06:30:38.156Z,7.46
2023-04-13T06:31:40.972Z,8.34
2023-04-13T06:32:43.965Z,8.93
2023-04-13T06:33:46.600Z,8.48
2023-04-13T06:34:49.472Z,8.17
2023-04-13T06:35:52.970Z,8.02
2023-04-13T06:36:55.543Z,8.60
2023-04-13T06:37:58.106Z,10.38
2023-04-13T06:39:01.089Z,9.87
2023-04-13T06:40:04.396Z,11.83
2023-04-13T06:41:07.341Z,10.15
2023-04-13T06:42:10.317Z,12.09
2023-04-13T06:43:26.450Z,9.29
2023-04-13T06:44:17.293Z,12.39
2023-04-13T06:45:20.381Z,11.29
2023-04-13T06:46:23.195Z,9.16
2023-04-13T06:47:26.065Z,9.34
2023-04-13T06:48:28.908Z,11.73
2023-04-13T06:49:31.468Z,10.55
2023-04-13T06:50:34.028Z,8.46
2023-04-13T06:51:37.004Z,13.78
2023-04-13T06:52:39.572Z,11.92
2023-04-13T06:53:42.359Z,10.24
2023-04-13T06:54:45.235Z,9.08
2023-04-13T06:55:47.995Z,8.33
2023-04-13T06:56:51.177Z,7.22
2023-04-13T06:57:54.151Z,8.29
2023-04-13T06:58:58.043Z,7.64
2023-04-13T07:00:03.700Z,7.38
2023-04-13T07:01:06.912Z,7.46
2023-04-13T07:02:10.111Z,6.94
2023-04-13T07:03:13.169Z,7.61
2023-04-13T07:04:16.243Z,6.74
2023-04-13T07:05:19.289Z,8.58
2023-04-13T07:06:22.384Z,6.78
2023-04-13T07:07:25.552Z,10.18
2023-04-13T07:08:28.135Z,10.30
2023-04-13T07:09:30.801Z,11.71
2023-04-13T07:10:33.460Z,8.61
2023-04-13T07:11:36.137Z,8.48
2023-04-13T07:12:39.007Z,7.99
2023-04-13T07:13:41.579Z,7.49
2023-04-13T07:14:44.260Z,7.06
2023-04-13T07:15:47.276Z,5.20
2023-04-13T07:16:50.303Z,6.47
2023-04-13T07:17:53.433Z,7.78
2023-04-13T07:18:56.249Z,9.55
2023-04-13T07:19:59.236Z,7.85
2023-04-13T07:21:02.010Z,10.22
2023-04-13T07:22:05.083Z,10.84
2023-04-13T07:23:08.371Z,13.98
2023-04-13T07:24:11.152Z,12.45
2023-04-13T07:25:13.915Z,12.49
2023-04-13T07:26:16.947Z,9.53
2023-04-13T07:27:19.762Z,9.80
2023-04-13T07:28:22.761Z,11.45
2023-04-13T07:29:25.519Z,12.69
2023-04-13T07:30:28.285Z,12.40
2023-04-13T07:31:31.267Z,10.25
2023-04-13T07:32:34.477Z,11.71
2023-04-13T07:33:37.737Z,11.98
2023-04-13T07:34:40.810Z,12.18
2023-04-13T07:35:43.794Z,9.92
2023-04-13T07:36:46.357Z,16.69
2023-04-13T07:37:50.607Z,9.89
2023-04-13T07:38:53.859Z,10.42
2023-04-13T07:39:56.938Z,8.94
2023-04-13T07:40:59.907Z,9.12
2023-04-13T07:42:02.885Z,6.91
2023-04-13T07:43:05.753Z,8.43
2023-04-13T07:44:11.432Z,7.80
2023-04-13T07:45:14.269Z,7.91
2023-04-13T07:46:16.957Z,7.98
2023-04-13T07:47:19.634Z,6.75
2023-04-13T07:48:22.170Z,7.33
2023-04-13T07:49:24.952Z,7.72
2023-04-13T07:50:27.621Z,4.67
2023-04-13T07:51:30.280Z,6.00
2023-04-13T07:52:33.362Z,6.89
2023-04-13T07:53:36.850Z,7.04
2023-04-13T07:54:40.135Z,6.78
2023-04-13T07:55:48.586Z,8.31
2023-04-13T07:56:51.312Z,8.03
2023-04-13T07:57:54.087Z,7.30
2023-04-13T07:58:57.084Z,9.89
2023-04-13T08:00:00.039Z,6.06
2023-04-13T08:01:02.601Z,7.24
2023-04-13T08:02:05.299Z,6.98
2023-04-13T08:03:08.218Z,9.91
2023-04-13T08:04:11.101Z,8.93
2023-04-13T08:05:14.033Z,9.52
2023-04-13T08:06:16.997Z,7.32
2023-04-13T08:07:19.647Z,11.51
2023-04-13T08:08:22.527Z,13.85
2023-04-13T08:09:25.194Z,11.34
2023-04-13T08:10:27.860Z,12.01
2023-04-13T08:11:30.843Z,13.62
2023-04-13T08:12:33.406Z,10.55
2023-04-13T08:13:36.191Z,10.43
2023-04-13T08:14:38.745Z,11.02
2023-04-13T08:15:41.619Z,10.84
2023-04-13T08:16:44.241Z,10.12
2023-04-13T08:17:46.620Z,10.43
2023-04-13T08:18:49.542Z,11.38
2023-04-13T08:19:52.202Z,9.96
2023-04-13T08:20:55.382Z,10.95
2023-04-13T08:21:58.159Z,8.77
2023-04-13T08:23:00.852Z,8.62
2023-04-13T08:24:03.620Z,10.31
2023-04-13T08:25:06.371Z,11.28
2023-04-13T08:26:09.283Z,10.60
2023-04-13T08:27:12.016Z,9.38
2023-04-13T08:28:15.005Z,8.13
2023-04-13T08:29:19.319Z,8.70
2023-04-13T08:30:22.200Z,11.28
2023-04-13T08:31:25.178Z,10.25
2023-04-13T08:32:27.829Z,12.45
2023-04-13T08:33:30.398Z,11.30
2023-04-13T08:34:33.058Z,11.32
2023-04-13T08:35:35.729Z,12.37
2023-04-13T08:36:38.704Z,10.47
2023-04-13T08:37:41.380Z,10.55
2023-04-13T08:38:43.948Z,10.47
2023-04-13T08:39:46.516Z,10.24
2023-04-13T08:40:50.244Z,11.31
2023-04-13T08:41:53.598Z,11.01
2023-04-13T08:42:56.057Z,8.84
2023-04-13T08:43:58.923Z,11.37
2023-04-13T08:45:01.740Z,11.89
2023-04-13T08:46:04.430Z,10.82
2023-04-13T08:47:07.358Z,9.92
2023-04-13T08:48:13.542Z,13.62
2023-04-13T08:49:16.172Z,12.20
2023-04-13T08:50:18.947Z,13.42
2023-04-13T08:51:21.508Z,15.48
2023-04-13T08:52:24.412Z,17.71
2023-04-13T08:53:27.205Z,25.32
2023-04-13T08:54:29.826Z,34.24
2023-04-13T08:55:32.620Z,22.76
2023-04-13T08:56:45.196Z,18.75
2023-04-13T08:57:39.572Z,16.61
2023-04-13T08:58:42.150Z,18.08
2023-04-13T08:59:44.830Z,19.54
2023-04-13T09:00:47.787Z,20.55
2023-04-13T09:01:50.766Z,17.09
2023-04-13T09:03:03.726Z,16.51
2023-04-13T09:03:58.360Z,20.19
2023-04-13T09:05:01.374Z,16.32
2023-04-13T09:06:04.109Z,16.87
2023-04-13T09:07:06.806Z,21.15
2023-04-13T09:08:09.756Z,17.94
2023-04-13T09:09:12.735Z,20.71
2023-04-13T09:10:15.815Z,19.55
2023-04-13T09:11:18.490Z,21.61
2023-04-13T09:12:21.153Z,20.83
2023-04-13T09:13:24.071Z,21.41
2023-04-13T09:14:26.899Z,20.23
2023-04-13T09:15:29.677Z,21.42
2023-04-13T09:16:32.378Z,21.33
2023-04-13T09:17:36.976Z,20.84
2023-04-13T09:18:39.835Z,19.50
2023-04-13T09:19:42.709Z,16.38
2023-04-13T09:20:45.788Z,22.52
2023-04-13T09:21:48.457Z,18.79
2023-04-13T09:22:51.579Z,20.83
2023-04-13T09:23:55.745Z,16.04
2023-04-13T09:24:58.326Z,18.48
2023-04-13T09:26:01.024Z,20.85
2023-04-13T09:27:03.959Z,16.92
2023-04-13T09:28:06.539Z,17.72
2023-04-13T09:29:09.807Z,17.37
2023-04-13T09:30:12.499Z,19.25
2023-04-13T09:31:15.096Z,16.09
2023-04-13T09:32:17.717Z,18.89
2023-04-13T09:33:20.600Z,18.08
2023-04-13T09:34:23.580Z,19.35
2023-04-13T09:35:26.356Z,18.23
2023-04-13T09:36:29.215Z,14.65
2023-04-13T09:37:31.885Z,20.15
2023-04-13T09:38:34.636Z,16.75
2023-04-13T09:39:37.639Z,18.95
2023-04-13T09:40:40.409Z,17.85
2023-04-13T09:41:43.093Z,14.85
2023-04-13T09:42:46.059Z,18.70
2023-04-13T09:43:49.041Z,19.48
2023-04-13T09:44:57.399Z,24.16
2023-04-13T09:46:00.076Z,21.62
2023-04-13T09:47:03.193Z,20.89
2023-04-13T09:48:05.918Z,20.22
2023-04-13T09:49:09.284Z,17.78
2023-04-13T09:50:12.222Z,18.66
2023-04-13T09:51:14.801Z,21.41
2023-04-13T09:52:17.461Z,21.78
2023-04-13T09:53:20.126Z,21.99
2023-04-13T09:54:22.826Z,22.46
2023-04-13T09:55:25.681Z,25.07
2023-04-13T09:56:28.340Z,18.05
2023-04-13T09:57:31.017Z,20.92
2023-04-13T09:58:33.888Z,21.41
2023-04-13T09:59:36.557Z,20.33
2023-04-13T10:00:39.333Z,16.37
2023-04-13T10:01:42.131Z,19.98
2023-04-13T10:02:45.713Z,17.20
2023-04-13T10:03:48.506Z,18.46
2023-04-13T10:04:53.165Z,18.89
2023-04-13T10:06:00.042Z,19.37
2023-04-13T10:07:00.366Z,19.16
2023-04-13T10:08:03.343Z,20.40
2023-04-13T10:09:06.010Z,23.90
2023-04-13T10:10:08.688Z,18.04
2023-04-13T10:11:11.718Z,18.47
2023-04-13T10:12:14.256Z,17.98
2023-04-13T10:13:22.037Z,17.78
2023-04-13T10:14:21.001Z,20.11
2023-04-13T10:15:23.582Z,22.41
2023-04-13T10:16:26.459Z,15.60
2023-04-13T10:17:29.525Z,13.34
2023-04-13T10:18:32.590Z,15.31
2023-04-13T10:19:35.277Z,14.63
2023-04-13T10:20:38.243Z,18.35
2023-04-13T10:21:41.342Z,17.87
2023-04-13T10:22:44.115Z,20.62
2023-04-13T10:23:46.779Z,23.35
2023-04-13T10:24:49.658Z,24.72
2023-04-13T10:25:52.120Z,25.49
2023-04-13T10:26:55.200Z,23.86
2023-04-13T10:27:58.173Z,23.72
2023-04-13T10:29:01.076Z,22.79
2023-04-13T10:30:04.013Z,24.68
2023-04-13T10:31:06.894Z,16.14
2023-04-13T10:32:10.418Z,15.56
2023-04-13T10:33:13.675Z,17.71
2023-04-13T10:34:16.351Z,14.33
2023-04-13T10:35:18.877Z,14.38
2023-04-13T10:36:21.467Z,14.30
2023-04-13T10:37:24.665Z,16.75
2023-04-13T10:38:27.559Z,15.29
2023-04-13T10:39:30.455Z,14.35
2023-04-13T10:40:33.069Z,13.22
2023-04-13T10:41:35.745Z,13.69
2023-04-13T10:42:50.664Z,13.13
2023-04-13T10:43:42.933Z,13.57
2023-04-13T10:44:45.798Z,11.64
2023-04-13T10:45:48.469Z,10.76
2023-04-13T10:46:51.522Z,10.89
2023-04-13T10:47:54.389Z,12.45
2023-04-13T10:48:57.363Z,10.60
2023-04-13T10:50:00.270Z,10.75
2023-04-13T10:51:03.258Z,11.11
2023-04-13T10:52:06.332Z,10.90
2023-04-13T10:53:09.022Z,10.79
2023-04-13T10:54:11.889Z,11.71
2023-04-13T10:55:14.435Z,8.97
2023-04-13T10:56:17.013Z,8.78
2023-04-13T10:57:19.573Z,9.91
2023-04-13T10:58:22.244Z,10.58
2023-04-13T10:59:25.222Z,9.54
2023-04-13T11:00:38.429Z,8.72
2023-04-13T11:01:35.638Z,10.91
2023-04-13T11:02:38.641Z,9.92
2023-04-13T11:03:53.133Z,7.44
2023-04-13T11:04:46.121Z,8.25
2023-04-13T11:05:52.139Z,8.23
2023-04-13T11:06:54.659Z,11.44
2023-04-13T11:07:57.442Z,10.45
2023-04-13T11:09:00.411Z,11.15
2023-04-13T11:10:09.269Z,11.83
2023-04-13T11:11:14.834Z,11.51
2023-04-13T11:12:16.096Z,12.77
2023-04-13T11:13:18.565Z,11.55
2023-04-13T11:14:21.751Z,12.32
2023-04-13T11:15:24.317Z,13.65
2023-04-13T11:16:32.296Z,16.24
2023-04-13T11:17:34.923Z,12.02
2023-04-13T11:18:37.554Z,11.43
2023-04-13T11:19:40.528Z,10.11
2023-04-13T11:20:43.095Z,13.40
2023-04-13T11:21:45.660Z,9.45
2023-04-13T11:22:48.641Z,10.30
2023-04-13T11:23:51.205Z,9.78
2023-04-13T11:24:54.183Z,8.89
2023-04-13T11:25:56.628Z,8.83
2023-04-13T11:26:59.215Z,9.90
2023-04-13T11:28:01.892Z,10.70
2023-04-13T11:29:04.558Z,15.08
2023-04-13T11:30:07.783Z,9.18
2023-04-13T11:31:10.620Z,10.12
2023-04-13T11:32:13.458Z,12.29
2023-04-13T11:33:16.070Z,10.44
2023-04-13T11:34:18.830Z,8.41
2023-04-13T11:35:22.123Z,13.41
2023-04-13T11:36:24.782Z,10.51
2023-04-13T11:37:27.458Z,9.88
2023-04-13T11:38:30.324Z,9.32
2023-04-13T11:39:33.090Z,13.08
2023-04-13T11:40:36.181Z,12.02
2023-04-13T11:41:38.847Z,14.05
2023-04-13T11:42:41.653Z,10.89
2023-04-13T11:43:44.395Z,12.86
2023-04-13T11:44:47.187Z,11.43
2023-04-13T11:45:50.341Z,12.67
2023-04-13T11:46:53.114Z,16.55
2023-04-13T11:47:55.930Z,10.99
2023-04-13T11:48:58.891Z,10.92
2023-04-13T11:50:01.672Z,11.31
2023-04-13T11:51:04.404Z,11.62
2023-04-13T11:52:07.086Z,11.67
2023-04-13T11:53:09.656Z,13.90
2023-04-13T11:54:12.222Z,12.02
2023-04-13T11:55:23.109Z,14.13
2023-04-13T11:56:19.195Z,12.62
2023-04-13T11:57:21.863Z,11.37
2023-04-13T11:58:24.530Z,12.03
2023-04-13T11:59:27.200Z,13.98
2023-04-13T12:00:29.894Z,12.55
2023-04-13T12:01:34.546Z,19.07
2023-04-13T12:02:45.054Z,12.06
2023-04-13T12:03:56.955Z,11.43
2023-04-13T12:04:45.419Z,16.21
2023-04-13T12:05:48.173Z,16.15
2023-04-13T12:06:51.426Z,14.95
2023-04-13T12:07:54.949Z,16.06
2023-04-13T12:09:03.064Z,14.74
2023-04-13T12:11:36.761Z,15.71
2023-04-13T12:12:46.265Z,16.18
2023-04-13T12:14:38.017Z,18.29
2023-04-13T12:15:42.707Z,20.35
2023-04-13T12:16:55.563Z,16.89
2023-04-13T12:18:37.364Z,13.57
2023-04-13T12:19:40.910Z,17.31
2023-04-13T12:20:44.147Z,16.56
2023-04-13T12:21:47.279Z,14.42
2023-04-13T12:22:57.630Z,20.12
2023-04-13T12:23:54.377Z,15.61
2023-04-13T12:24:58.340Z,17.49
2023-04-13T12:26:13.196Z,14.01
2023-04-13T12:28:10.110Z,16.09
2023-04-13T12:29:14.291Z,15.35
2023-04-13T12:30:16.817Z,11.64
2023-04-13T12:31:19.813Z,10.93
2023-04-13T12:32:24.585Z,12.82
2023-04-13T12:33:27.575Z,13.25
2023-04-13T12:34:30.428Z,13.11
2023-04-13T12:35:33.303Z,15.55
2023-04-13T12:36:35.976Z,14.60
2023-04-13T12:37:38.647Z,14.99
2023-04-13T12:38:41.659Z,14.54
2023-04-13T12:39:44.505Z,12.38
2023-04-13T12:40:47.480Z,16.52
2023-04-13T12:41:50.555Z,13.06
2023-04-13T12:42:53.330Z,13.21
2023-04-13T12:43:56.406Z,13.63
2023-04-13T12:44:59.073Z,13.78
2023-04-13T12:46:02.511Z,12.58
2023-04-13T12:47:05.400Z,14.10
2023-04-13T12:48:08.045Z,15.48
2023-04-13T12:49:10.981Z,16.55
2023-04-13T12:50:13.679Z,15.55
2023-04-13T12:51:16.318Z,14.88
2023-04-13T12:52:18.991Z,11.86
2023-04-13T12:53:21.781Z,14.77
2023-04-13T12:54:24.741Z,15.49
2023-04-13T12:55:27.614Z,17.25
2023-04-13T12:56:31.842Z,17.32
2023-04-13T12:57:36.698Z,14.83
2023-04-13T12:58:39.233Z,15.74
2023-04-13T12:59:41.880Z,17.65
2023-04-13T13:00:44.620Z,13.09
2023-04-13T13:01:47.232Z,12.33
2023-04-13T13:02:54.275Z,14.95
2023-04-13T13:03:54.734Z,16.59
2023-04-13T13:04:57.651Z,18.31
2023-04-13T13:06:00.255Z,18.48
2023-04-13T13:07:03.026Z,13.31
2023-04-13T13:08:06.220Z,14.25
2023-04-13T13:09:08.880Z,14.37
2023-04-13T13:10:25.783Z,20.18
2023-04-13T13:11:21.397Z,17.31
2023-04-13T13:12:24.080Z,14.42
2023-04-13T13:13:26.726Z,15.66
2023-04-13T13:14:29.407Z,18.11
2023-04-13T13:15:32.066Z,15.86
2023-04-13T13:16:37.336Z,15.34
2023-04-13T13:17:40.005Z,16.19
2023-04-13T13:18:50.357Z,17.86
2023-04-13T13:19:47.050Z,13.91
2023-04-13T13:20:50.245Z,14.20
2023-04-13T13:21:53.119Z,16.22
2023-04-13T13:22:55.868Z,12.29
2023-04-13T13:23:59.059Z,12.55
2023-04-13T13:25:01.943Z,11.92
2023-04-13T13:26:23.102Z,11.72
2023-04-13T13:28:14.513Z,11.70
2023-04-13T13:29:17.422Z,12.55
2023-04-13T13:30:20.499Z,17.65
2023-04-13T13:31:23.417Z,25.44
2023-04-13T13:32:26.338Z,29.16
2023-04-13T13:33:29.235Z,33.22
2023-04-13T13:34:32.113Z,20.28
2023-04-13T13:35:34.789Z,20.24
2023-04-13T13:36:37.445Z,24.02
2023-04-13T13:37:40.012Z,21.48
2023-04-13T13:38:43.109Z,16.57
2023-04-13T13:39:46.168Z,16.41
2023-04-13T13:40:49.251Z,14.86
2023-04-13T13:41:52.224Z,16.20
2023-04-13T13:42:54.827Z,17.15
2023-04-13T13:43:57.673Z,15.69
2023-04-13T13:45:00.606Z,15.25
2023-04-13T13:46:03.636Z,15.41
2023-04-13T13:47:06.606Z,15.85
2023-04-13T13:48:09.680Z,17.49
2023-04-13T13:49:12.657Z,19.06
2023-04-13T13:50:15.534Z,13.88
2023-04-13T13:51:18.402Z,20.27
2023-04-13T13:52:21.081Z,21.15
2023-04-13T13:53:23.851Z,23.22
2023-04-13T13:54:26.515Z,16.86
2023-04-13T13:55:29.222Z,15.98
2023-04-13T13:56:31.930Z,15.93
2023-04-13T13:57:35.038Z,18.95
2023-04-13T13:58:37.909Z,21.83
2023-04-13T13:59:40.477Z,18.94
2023-04-13T14:00:43.147Z,18.29
2023-04-13T14:01:45.888Z,19.94
2023-04-13T14:02:48.582Z,20.12
2023-04-13T14:03:51.685Z,22.80
2023-04-13T14:04:54.544Z,23.66
2023-04-13T14:05:57.419Z,17.14
2023-04-13T14:07:00.105Z,20.95
2023-04-13T14:08:02.758Z,13.03
2023-04-13T14:09:05.372Z,17.77
2023-04-13T14:10:08.198Z,16.74
2023-04-13T14:11:10.969Z,17.38
2023-04-13T14:12:13.771Z,14.63
2023-04-13T14:13:16.731Z,15.93
2023-04-13T14:14:22.249Z,16.62
2023-04-13T14:15:23.703Z,21.44
2023-04-13T14:16:26.389Z,24.87
2023-04-13T14:17:29.161Z,14.74
2023-04-13T14:18:32.705Z,13.82
2023-04-13T14:19:35.521Z,21.58
2023-04-13T14:20:38.174Z,17.50
2023-04-13T14:21:40.843Z,15.28
2023-04-13T14:22:43.640Z,16.73
2023-04-13T14:23:46.796Z,20.73
2023-04-13T14:24:49.673Z,16.80
2023-04-13T14:25:52.348Z,16.52
2023-04-13T14:26:54.908Z,15.53
2023-04-13T14:27:57.577Z,16.39
2023-04-13T14:29:00.818Z,17.08
2023-04-13T14:30:03.684Z,20.30
2023-04-13T14:31:06.356Z,19.28
2023-04-13T14:32:09.076Z,13.25
2023-04-13T14:33:12.833Z,16.76
2023-04-13T14:34:16.159Z,16.44
2023-04-13T14:35:19.045Z,15.66
2023-04-13T14:36:21.720Z,13.20